Accueil
METAR-TAF:

METAR-TAF

Aéroports :

Aéroport Albert-Picardie

Albert, France

latitude: 49-58-21N, longitude: 002-41-29E, altitude: 111 m

Observation

Le bulletin a été fait il y a 19 minutes, à 08:00 UTC
Vent 8 kt de est/sud-est
Température -1°C
Humidité 100%
Pression 1012 hPa
Visibilité: 3400 m
brume

METAR: LFAQ 210800Z AUTO 12008KT 3400 BR NSC M01/M01 Q1012 TEMPO BKN007 BECMG 9999 NSW

Heure: 09:19 (08:19 UTC)

Prévision

Le bulletin a été fait il y a 3 heures et 19 minutes, à 05:00 UTC
Prévision valable du 21 à 06 UTC au 21 à 15 UTC
Vent 6 kt de sud
Visibilité: 3000 m
brume
Probabilité 30% :
Temporairement
du 21 à 06 UTC au 21 à 09 UTC
Nuages fragmentés à une hauteur de 700 ft
Evoluant progressivement
du 21 à 08 UTC au 21 à 10 UTC
Visibilité 10 km ou plus

TAF: LFAQ 210500Z 2106/2115 17006KT 3000 BR NSC PROB30 TEMPO 2106/2109 BKN007 BECMG 2108/2110 9999 NSW

Observations et prévisions météorologiques de plus de 4000 aéroports (messages METAR et TAF).

Les stations disponibles sont représentées par des disques jaunes et rouges sur la carte.

Passer la souris dessus pour voir le nom de la station.

Cliquer dessus pour voir les observations et prévisions météorologiques.

Pour changer de carte: cliquez sur les boutons verts avec une croix noire pour zoomer, sur le bouton vert avec un tiret pour effectuer un zoom arrière, ou sur les flèches vertes pour les cartes adjacentes.


METAR-TAF: